• Join FlightAware (Why Join?)
  • Login
  • US Flag 
05:51AM EDT


 

Airport Tracker/Info


-or-


 

Live Flight TrackerFlight Track Log ✈ GJS3707 ✈ 20-Sep-2013 ✈ KORD - KBOI

Flight Track Log - Related Links

Times and Time Zones

All times are in EDT time to prevent confusion due to time zone crossing. See the GJS3707 flight status page for this flight to view local times or setup timezone preferences in your user account.

Time Position Orientation Groundspeed Altitude Reporting Facility
EDT Latitude Longitude Course Direction KTS MPH feet Rate Location/Type
10:55AM 41.9667 -87.9333 270° West 173 199 2,100  Level Chicago TRACON
10:56AM 41.9667 -88.0000 270° West 211 243 4,000 1,560 Climbing Chicago TRACON
10:57AM 41.9667 -88.1000 270° West 242 278 5,100 1,620 Climbing Chicago TRACON
10:58AM 41.9781 -88.1572 285° West 238 274 6,900 2,520 Climbing Chicago Center
10:59AM 41.9919 -88.2539 281° West 261 300 9,600 2,340 Climbing Chicago Center
11:00AM 42.0019 -88.3503 278° West 262 302 11,800 1,680 Climbing Chicago Center
11:01AM 42.0167 -88.4539 281° West 281 323 13,200 1,860 Climbing Chicago Center
11:02AM 42.0367 -88.5819 282° West 293 337 15,700 2,040 Climbing Chicago Center
11:03AM 42.0547 -88.6911 283° West 299 344 17,500 1,500 Climbing Chicago Center
11:04AM 42.0647 -88.8117 276° West 322 371 18,800 1,080 Climbing Chicago Center
11:05AM 42.0722 -88.9397 275° West 343 395 19,800 1,200 Climbing Chicago Center
11:06AM 42.0692 -89.1056 269° West 368 423 21,300 1,440 Climbing Chicago Center
11:07AM 42.0686 -89.2458 270° West 377 434 22,800 1,080 Climbing Chicago Center
11:08AM 42.0739 -89.3861 273° West 378 435 23,600 840 Climbing Chicago Center
11:09AM 42.0803 -89.5311 273° West 389 448 24,600 960 Climbing Chicago Center
11:10AM 42.0897 -89.6919 275° West 397 457 25,700 960 Climbing Chicago Center
11:11AM 42.1019 -89.8397 276° West 398 458 26,700 960 Climbing Chicago Center
11:12AM 42.1144 -89.9881 277° West 401 461 27,700 960 Climbing Chicago Center
11:13AM 42.1300 -90.1347 278° West 400 460 28,700 1,020 Climbing Chicago Center
11:14AM 42.1544 -90.3103 281° West 401 461 29,900 1,020 Climbing Chicago Center
11:15AM 42.1750 -90.4556 281° West 399 459 30,900 960 Climbing Chicago Center
11:16AM 42.1981 -90.5989 282° West 397 457 31,900 960 Climbing Chicago Center
11:17AM 42.2208 -90.7408 282° West 392 451 32,900 960 Climbing Chicago Center
11:18AM 42.2436 -90.8781 283° West 382 440 33,900 1,020 Climbing Chicago Center
11:19AM 42.2706 -91.0436 282° West 379 436 35,100 960 Climbing Chicago Center
11:20AM 42.2931 -91.1786 283° West 376 433 36,000 480 Climbing Chicago Center
11:21AM 42.3142 -91.3108 282° West 366 421 36,100 540 Climbing Chicago Center
11:22AM 42.3367 -91.4467 283° West 368 423 37,200 900 Climbing Chicago Center
11:23AM 42.3567 -91.5744 282° West 354 407 38,000 360 Climbing Chicago Center
11:24AM 42.3767 -91.7031 282° West 349 402 38,000  Level Chicago Center
11:25AM 42.4019 -91.8603 282° West 357 411 38,000  Level Chicago Center
11:27AM 42.4222 -91.9931 282° West 360 414 38,000  Level Chicago Center
11:28AM 42.4428 -92.1247 282° West 358 412 38,000  Level Chicago Center
11:29AM 42.4628 -92.2544 282° West 355 409 38,000  Level Chicago Center
11:30AM 42.4822 -92.3844 282° West 354 407 38,000  Level Chicago Center
11:31AM 42.5019 -92.5131 282° West 352 405 38,000  Level Chicago Center
11:32AM 42.5253 -92.6683 282° West 352 405 38,000  Level Chicago Center
11:33AM 42.5444 -92.7972 281° West 352 405 38,000  Level Chicago Center
11:34AM 42.5633 -92.9261 281° West 352 405 38,000  Level Chicago Center
11:35AM 42.5825 -93.0556 281° West 352 405 38,000  Level Chicago Center
11:36AM 42.6053 -93.2122 281° West 354 407 38,000  Level Chicago Center
11:37AM 42.6244 -93.3467 281° West 364 419 38,000  Level Chicago Center
11:38AM 42.6436 -93.4811 281° West 366 421 38,000  Level Chicago Center
11:39AM 42.6633 -93.6183 281° West 369 425 38,000  Level Chicago Center
11:40AM 42.6828 -93.7564 281° West 373 429 38,000  Level Chicago Center
11:41AM 42.7061 -93.9256 281° West 380 437 38,000  Level Chicago Center
11:42AM 42.7261 -94.0692 281° West 387 445 38,000  Level Chicago Center
11:43AM 42.7442 -94.2111 280° West 387 445 38,000  Level Chicago Center
11:44AM 42.7689 -94.3825 281° West 387 445 38,000  Level Minneapolis Center
11:45AM 42.7900 -94.5278 281° West 393 452 38,000  Level Minneapolis Center
11:46AM 42.8117 -94.6989 280° West 385 443 38,000  Level Minneapolis Center
11:47AM 42.8308 -94.8458 280° West 392 451 38,000  Level Minneapolis Center
11:48AM 42.8500 -94.9933 280° West 394 453 38,000  Level Minneapolis Center
11:50AM 42.8692 -95.1411 280° West 396 456 38,000  Level Minneapolis Center
11:51AM 42.8872 -95.2878 280° West 394 453 38,000  Level Minneapolis Center
11:52AM 42.9097 -95.4650 280° West 395 455 38,000  Level Minneapolis Center
11:53AM 42.9272 -95.6133 279° West 396 456 38,000  Level Minneapolis Center
11:54AM 42.9453 -95.7628 279° West 398 458 38,000  Level Minneapolis Center
11:55AM 42.9628 -95.9106 279° West 395 455 38,000  Level Minneapolis Center
11:56AM 42.9814 -96.0594 280° West 396 456 38,000  Level Minneapolis Center
11:57AM 42.9981 -96.2086 279° West 396 456 38,000  Level Minneapolis Center
11:58AM 43.0192 -96.3881 279° West 398 458 38,000  Level Minneapolis Center
11:59AM 43.0364 -96.5394 279° West 400 460 38,000  Level Minneapolis Center
12:00PM 43.0536 -96.6900 279° West 400 460 38,000  Level Minneapolis Center
12:01PM 43.0711 -96.8417 279° West 402 463 38,000  Level Minneapolis Center
12:02PM 43.0883 -96.9953 279° West 405 466 38,000  Level Minneapolis Center
12:03PM 43.1044 -97.1492 278° West 407 468 38,000  Level Minneapolis Center
12:04PM 43.1247 -97.3358 279° West 412 474 38,000  Level Minneapolis Center
12:05PM 43.1411 -97.4919 278° West 414 476 38,000  Level Minneapolis Center
12:06PM 43.1578 -97.6469 278° West 413 475 38,000  Level Minneapolis Center
12:07PM 43.1733 -97.8044 278° West 415 478 38,000  Level Minneapolis Center
12:08PM 43.1900 -97.9622 278° West 419 482 38,000  Level Minneapolis Center
12:09PM 43.2047 -98.1206 277° West 419 482 38,000  Level Minneapolis Center
12:10PM 43.2247 -98.3117 278° West 421 484 38,000  Level Minneapolis Center
12:11PM 43.2400 -98.4733 277° West 427 491 38,000  Level Minneapolis Center
12:12PM 43.2556 -98.6339 278° West 426 490 38,000  Level Minneapolis Center
12:13PM 43.2711 -98.7939 278° West 425 489 38,000  Level Minneapolis Center
12:14PM 43.2856 -98.9556 277° West 426 490 38,000  Level Minneapolis Center
12:15PM 43.3000 -99.1117 277° West 425 489 38,000  Level Minneapolis Center
12:16PM 43.3175 -99.3050 277° West 424 488 38,000  Level Minneapolis Center
12:17PM 43.3319 -99.4644 277° West 422 486 38,000  Level Minneapolis Center
12:18PM 43.3453 -99.6256 277° West 423 487 38,000  Level Minneapolis Center
12:20PM 43.3594 -99.7886 277° West 426 490 38,000  Level Minneapolis Center
12:21PM 43.3725 -99.9478 276° West 421 484 38,000  Level Minneapolis Center
12:22PM 43.3856 -100.1075 276° West 421 484 38,000  Level Minneapolis Center
12:23PM 43.4011 -100.2992 276° West 420 483 38,000  Level Minneapolis Center
12:23PM 43.4089 -100.3950 276° West 421 484 38,000  Level Denver Center
12:24PM 43.4242 -100.5889 276° West 423 487 38,000  Level Denver Center
12:25PM 43.4364 -100.7481 276° West 420 483 38,000  Level Denver Center
12:26PM 43.4486 -100.9117 276° West 426 490 38,000  Level Denver Center
12:28PM 43.4600 -101.0761 276° West 430 495 38,000  Level Denver Center
12:29PM 43.4717 -101.2397 276° West 431 496 38,000  Level Denver Center
12:30PM 43.4844 -101.4058 276° West 434 499 38,000  Level Denver Center
12:31PM 43.4972 -101.5719 276° West 436 502 38,000  Level Denver Center
12:32PM 43.5094 -101.7700 275° West 432 497 38,000  Level Denver Center
12:33PM 43.5208 -101.9342 276° West 430 495 38,000  Level Denver Center
12:34PM 43.5336 -102.1294 275° West 429 494 38,000  Level Denver Center
12:35PM 43.5456 -102.3111 275° West 428 493 38,000  Level Denver Center
12:36PM 43.5547 -102.4667 275° West 425 489 38,000  Level Denver Center
12:37PM 43.5653 -102.6483 275° West 427 491 38,000  Level Denver Center
12:38PM 43.5750 -102.8047 275° West 428 493 38,000  Level Denver Center
12:39PM 43.5833 -102.9617 274° West 429 494 38,000  Level Denver Center
12:40PM 43.5939 -103.1464 275° West 433 498 38,000  Level Denver Center
12:41PM 43.6042 -103.3047 275° West 433 498 38,000  Level Denver Center
12:42PM 43.6128 -103.4925 274° West 438 504 38,000  Level Denver Center
12:43PM 43.6214 -103.6533 274° West 440 506 38,000  Level Denver Center
12:44PM 43.6308 -103.8394 274° West 439 505 38,000  Level Denver Center
12:45PM 43.6375 -104.0003 273° West 440 506 38,000  Level Denver Center
12:46PM 43.6481 -104.1875 275° West 440 506 38,000  Level Denver Center
12:47PM 43.6550 -104.3478 273° West 439 505 38,000  Level Denver Center
12:48PM 43.6625 -104.5358 273° West 440 506 38,000  Level Denver Center
12:49PM 43.6711 -104.6956 274° West 439 505 38,000  Level Denver Center
12:51PM 43.6789 -104.9100 273° West 439 505 38,000  Level Denver Center
12:52PM 43.6858 -105.0950 273° West 435 501 38,000  Level Denver Center
12:53PM 43.6922 -105.2789 273° West 433 498 38,000  Level Denver Center
12:54PM 43.6997 -105.4622 273° West 430 495 38,000  Level Denver Center
12:55PM 43.7053 -105.6208 273° West 432 497 38,000  Level Denver Center
12:56PM 43.7100 -105.8056 272° West 432 497 38,000  Level Denver Center
12:57PM 43.7161 -106.0178 272° West 433 498 38,000  Level Denver Center
12:58PM 43.7206 -106.1753 272° West 432 497 38,000  Level Denver Center
12:59PM 43.7264 -106.3586 273° West 430 495 38,000  Level Denver Center
01:00PM 43.7300 -106.5189 272° West 435 501 38,000  Level Denver Center
01:01PM 43.7344 -106.7025 272° West 430 495 38,000  Level Denver Center
01:02PM 43.7375 -106.8619 272° West 433 498 38,000  Level Denver Center
01:04PM 43.7400 -107.0169 271° West 433 498 38,000  Level Denver Center
01:04PM 43.7425 -107.1853 271° West 430 495 38,000  Level Salt Lake Center
01:05PM 43.7450 -107.3497 271° West 428 493 38,000  Level Salt Lake Center
01:06PM 43.7486 -107.5147 272° West 430 495 38,000  Level Salt Lake Center
01:07PM 43.7522 -107.6789 272° West 429 494 38,000  Level Salt Lake Center
01:09PM 43.7547 -107.8447 271° West 430 495 38,000  Level Salt Lake Center
01:10PM 43.7575 -108.0114 271° West 434 499 38,000  Level Salt Lake Center
01:11PM 43.7594 -108.2103 271° West 432 497 38,000  Level Salt Lake Center
01:12PM 43.7622 -108.3758 271° West 431 496 38,000  Level Salt Lake Center
01:13PM 43.7625 -108.5403 270° West 429 494 38,000  Level Salt Lake Center
01:14PM 43.7644 -108.7058 271° West 430 495 38,000  Level Salt Lake Center
01:15PM 43.7653 -108.8706 270° West 430 495 38,000  Level Salt Lake Center
01:16PM 43.7656 -109.0364 270° West 431 496 38,000  Level Salt Lake Center
01:17PM 43.7656 -109.2333 270° West 428 493 38,000  Level Salt Lake Center
01:18PM 43.7667 -109.3986 271° West 429 494 38,000  Level Salt Lake Center
01:19PM 43.7661 -109.5583 270° West 431 496 38,000  Level Salt Lake Center
01:20PM 43.7656 -109.7433 270° West 430 495 38,000  Level Salt Lake Center
01:22PM 43.7650 -110.0847 270° West 429 494 38,000  Level Salt Lake Center
01:23PM 43.7642 -110.2425 270° West 429 494 38,000  Level Salt Lake Center
01:24PM 43.7628 -110.4019 269° West 432 497 38,000  Level Salt Lake Center
01:25PM 43.7608 -110.5858 269° West 429 494 38,000  Level Salt Lake Center
01:26PM 43.7600 -110.7453 270° West 433 498 38,000  Level Salt Lake Center
01:27PM 43.7581 -110.9328 269° West 436 502 38,000  Level Salt Lake Center
01:28PM 43.7539 -111.0931 268° West 435 501 38,000  Level Salt Lake Center
01:29PM 43.7522 -111.2786 269° West 432 497 38,000  Level Salt Lake Center
01:30PM 43.7483 -111.4403 268° West 437 503 38,000  Level Salt Lake Center
01:31PM 43.7456 -111.6281 269° West 437 503 38,000  Level Salt Lake Center
01:32PM 43.7428 -111.7889 269° West 437 503 38,000  Level Salt Lake Center
01:33PM 43.7386 -111.9497 268° West 436 502 38,000  Level Salt Lake Center
01:34PM 43.7339 -112.1375 268° West 437 503 38,000  Level Salt Lake Center
01:35PM 43.7303 -112.2969 268° West 434 499 38,000  Level Salt Lake Center
01:36PM 43.7244 -112.4811 268° West 430 495 38,000  Level Salt Lake Center
01:37PM 43.7200 -112.6403 268° West 430 495 38,000  Level Salt Lake Center
01:39PM 43.7150 -112.8269 268° West 434 499 38,000  Level Salt Lake Center
01:40PM 43.7108 -112.9861 268° West 432 497 38,000  Level Salt Lake Center
01:41PM 43.7036 -113.1714 267° West 432 497 38,000  Level Salt Lake Center
01:42PM 43.6981 -113.3289 267° West 430 495 38,000  Level Salt Lake Center
01:43PM 43.6922 -113.5142 268° West 432 497 38,000  Level Salt Lake Center
01:44PM 43.6889 -113.6756 268° West 437 503 38,000  Level Salt Lake Center
01:45PM 43.6811 -113.8603 267° West 432 497 38,000  Level Salt Lake Center
01:46PM 43.6747 -114.0053 267° West 433 498 38,000  Level Salt Lake Center
01:47PM 43.6672 -114.1703 266° West 432 497 38,000  Level Salt Lake Center
01:48PM 43.6592 -114.3681 267° West 432 497 38,000 -540 Level Salt Lake Center
01:49PM 43.6517 -114.5328 266° West 432 497 37,000 -2,280 Descending Salt Lake Center
01:50PM 43.6436 -114.7017 266° West 441 507 33,400 -3,480 Descending Salt Lake Center
01:51PM 43.6369 -114.8675 267° West 433 498 29,900 -3,420 Descending Salt Lake Center
01:52PM 43.6289 -115.0292 266° West 424 488 26,400 -3,720 Descending Salt Lake Center
01:53PM 43.5986 -115.2072 257° West 413 475 22,400 -3,420 Descending Salt Lake Center
01:53PM 43.6217 -115.1875 32° Northeast 414 476 22,900 -3,540 Climbing Salt Lake Center
01:54PM 43.6125 -115.3750 266° West 408 470 18,600 -3,900 Descending Salt Lake Center
01:55PM 43.5894 -115.5089 257° West 387 445 15,300 -3,540 Descending Salt Lake Center
01:55PM 43.6031 -115.5247 320° Northwest 393 452 15,000 -3,060 Descending Salt Lake Center
01:56PM 43.5856 -115.6550 260° West 379 436 12,200 -2,820 Descending Salt Lake Center
01:56PM 43.5950 -115.6750 303° West 380 437 12,100 -600 Descending Salt Lake Center
01:57PM 43.5803 -115.7953 260° West 359 413 11,600 -720 Descending Salt Lake Center
01:57PM 43.5872 -115.8200 291° West 368 423 11,400 -1,200 Descending Salt Lake Center
01:58PM 43.5758 -115.9111 260° West 295 339 10,400 -1,200 Descending Salt Lake Center
01:58PM 43.5828 -115.9306 296° West 306 352 10,200 -1,320 Descending Salt Lake Center
01:59PM 43.6092 -116.0200 292° West 296 341 9,100 -1,080 Descending Salt Lake Center
01:59PM 43.6183 -116.0367 307° West 296 341 9,100 -240 Level Salt Lake Center
02:00PM 43.6425 -116.1111 294° West 296 341 8,900 -600 Descending Salt Lake Center
02:00PM 43.6533 -116.1428 295° West 292 336 8,500 -1,140 Descending Salt Lake Center
02:01PM 43.6778 -116.2011 300° West 262 302 7,800 -1,020 Descending Salt Lake Center
02:01PM 43.6883 -116.2369 292° West 259 298 7,500 -1,920 Descending Salt Lake Center
02:02PM 43.6817 -116.2775 257° West 208 239 5,900 -1,980 Descending Salt Lake Center
02:02PM 43.6606 -116.3008 219° Southwest 216 249 5,500 -900 Descending Salt Lake Center
02:03PM 43.6286 -116.3239 208° Southwest 205 236 5,000 -1,200 Descending Salt Lake Center
02:03PM 43.6047 -116.3242 180° South 197 227 4,300 -1,200 Descending Salt Lake Center
02:04PM 43.5911 -116.2917 120° Southeast 163 188 3,800 -720 Descending Salt Lake Center
02:04PM 43.5819 -116.2750 127° Southeast 176 203 3,600 -300 Descending Salt Lake Center
02:05PM 43.5642 -116.2244 116° Southeast 172 198 3,400 -240 Descending Salt Lake Center